Time;durP1;ratioP1;P1;durP2;ratioP2;P2;SDS_P1;SDS_P2;PMS_P1;PMS_P2;Temp;Humidity;BMP_temperature;BMP_pressure;BME280_temperature;BME280_humidity;BME280_pressure;Samples;Min_cycle;Max_cycle;Signal;HPM_P1;HPM_P2
2021/10/28 00:14:00;;;;;;;36.83;20.98;;;9.10;99.90;;;;;;6253302;23;20022;-79
2021/10/28 00:16:30;;;;;;;34.88;20.90;;;9.10;99.90;;;;;;6253770;23;20072;-79
2021/10/28 00:19:01;;;;;;;34.70;20.98;;;9.20;99.90;;;;;;6277673;22;20027;-77
2021/10/28 00:21:30;;;;;;;39.70;22.20;;;9.20;99.90;;;;;;6277071;22;20077;-77
2021/10/28 00:24:01;;;;;;;39.97;22.25;;;9.20;99.90;;;;;;6276943;22;20107;-78
2021/10/28 00:26:29;;;;;;;36.10;21.10;;;9.10;99.90;;;;;;6276751;22;20016;-78
2021/10/28 00:29:00;;;;;;;37.05;22.83;;;9.10;99.90;;;;;;6277480;22;20024;-77
2021/10/28 00:31:32;;;;;;;42.50;22.42;;;9.10;99.90;;;;;;6277436;22;20024;-77
2021/10/28 00:34:00;;;;;;;39.70;21.88;;;9.10;99.90;;;;;;6276009;22;20102;-77
2021/10/28 00:36:27;;;;;;;44.17;21.92;;;9.10;99.90;;;;;;6276124;22;20395;-77
2021/10/28 00:38:55;;;;;;;38.50;22.85;;;9.10;99.90;;;;;;6277019;22;20108;-77
2021/10/28 00:41:23;;;;;;;42.85;24.23;;;9.10;99.90;;;;;;6276714;22;20382;-78
2021/10/28 00:43:54;;;;;;;45.55;24.17;;;9.10;99.90;;;;;;6275573;22;20090;-78
2021/10/28 00:46:22;;;;;;;44.40;24.25;;;9.10;99.90;;;;;;6276584;22;20020;-78
2021/10/28 00:48:50;;;;;;;43.95;23.92;;;9.00;99.90;;;;;;6277346;22;20406;-77
2021/10/28 00:51:20;;;;;;;45.00;24.20;;;9.00;99.90;;;;;;6277203;22;20034;-77
2021/10/28 00:53:47;;;;;;;47.75;25.08;;;9.00;99.90;;;;;;6277411;22;20114;-78
2021/10/28 00:56:14;;;;;;;49.50;26.38;;;9.00;99.90;;;;;;6276390;22;20016;-77
2021/10/28 00:58:41;;;;;;;47.45;25.33;;;9.00;99.90;;;;;;6277092;22;20095;-77
2021/10/28 01:01:09;;;;;;;54.88;26.33;;;8.90;99.90;;;;;;6277564;22;20080;-78
2021/10/28 01:03:37;;;;;;;53.05;26.67;;;8.90;99.90;;;;;;6279967;22;20134;-78
2021/10/28 01:06:08;;;;;;;50.17;27.48;;;8.90;99.90;;;;;;6277274;22;20441;-77
2021/10/28 01:08:37;;;;;;;46.78;27.20;;;8.90;99.90;;;;;;6277886;22;20423;-77
2021/10/28 01:11:05;;;;;;;53.65;27.50;;;8.90;99.90;;;;;;6279521;22;20094;-78
2021/10/28 01:13:32;;;;;;;55.90;28.02;;;8.90;99.90;;;;;;6279276;22;20361;-79
2021/10/28 01:15:58;;;;;;;51.05;25.45;;;8.80;99.90;;;;;;6275764;22;20094;-79
2021/10/28 01:18:25;;;;;;;54.20;27.08;;;8.90;99.90;;;;;;6276377;22;20098;-78
2021/10/28 01:20:55;;;;;;;58.10;29.92;;;8.90;99.90;;;;;;6275954;22;20071;-78
2021/10/28 01:23:23;;;;;;;54.50;28.15;;;8.90;99.90;;;;;;6276606;22;20055;-76
2021/10/28 01:25:53;;;;;;;51.75;27.60;;;8.90;99.90;;;;;;6276368;22;20054;-77
2021/10/28 01:28:22;;;;;;;60.03;27.25;;;8.90;99.90;;;;;;6275398;22;20353;-78
2021/10/28 01:30:49;;;;;;;57.80;27.52;;;8.90;99.90;;;;;;6275284;22;20346;-78
2021/10/28 01:33:16;;;;;;;51.08;26.83;;;8.90;99.90;;;;;;6276369;22;20071;-78
2021/10/28 01:35:43;;;;;;;58.42;27.23;;;8.90;99.90;;;;;;6276267;22;20035;-78
2021/10/28 01:38:14;;;;;;;59.95;26.63;;;8.90;99.90;;;;;;6276670;22;20031;-77
2021/10/28 01:40:41;;;;;;;57.38;28.42;;;8.80;99.90;;;;;;6279236;22;20171;-77
2021/10/28 01:43:09;;;;;;;61.22;29.67;;;8.80;99.90;;;;;;6279274;22;20469;-77
2021/10/28 01:45:36;;;;;;;63.70;29.42;;;8.80;99.90;;;;;;6278299;22;20067;-77
2021/10/28 01:48:05;;;;;;;58.08;29.95;;;8.70;99.90;;;;;;6277723;22;20095;-77
2021/10/28 01:50:32;;;;;;;61.22;28.55;;;8.70;99.90;;;;;;6275929;22;20055;-78
2021/10/28 01:52:59;;;;;;;66.25;29.38;;;8.70;99.90;;;;;;6275738;22;20099;-78
2021/10/28 01:55:28;;;;;;;69.82;30.17;;;8.60;99.90;;;;;;6275901;22;20027;-78
2021/10/28 01:57:55;;;;;;;67.20;31.58;;;8.70;99.90;;;;;;6275917;22;20363;-79
2021/10/28 02:00:24;;;;;;;69.95;32.42;;;8.70;99.90;;;;;;6275501;22;20068;-78
2021/10/28 02:02:51;;;;;;;68.97;30.42;;;8.60;99.90;;;;;;6276840;22;20055;-79
2021/10/28 02:05:19;;;;;;;70.20;31.23;;;8.60;99.90;;;;;;6276666;22;20032;-79
2021/10/28 02:07:47;;;;;;;70.07;30.98;;;8.60;99.90;;;;;;6277405;22;20080;-79
2021/10/28 02:10:15;;;;;;;74.55;32.40;;;8.60;99.90;;;;;;6276726;22;20094;-78
2021/10/28 02:12:46;;;;;;;78.18;33.67;;;8.70;99.90;;;;;;6277977;22;20020;-78
2021/10/28 02:15:15;;;;;;;81.93;31.92;;;8.70;99.90;;;;;;6276260;22;20047;-78
2021/10/28 02:17:43;;;;;;;80.68;33.25;;;8.70;99.90;;;;;;6278262;22;20081;-78
2021/10/28 02:20:12;;;;;;;78.97;33.40;;;8.70;99.90;;;;;;6277923;22;20047;-77
2021/10/28 02:22:41;;;;;;;85.93;35.50;;;8.70;99.90;;;;;;6275977;22;20054;-77
2021/10/28 02:25:09;;;;;;;81.05;33.88;;;8.70;99.90;;;;;;6275672;22;20458;-78
2021/10/28 02:27:37;;;;;;;84.25;33.33;;;8.80;99.90;;;;;;6276131;22;20030;-79
2021/10/28 02:30:07;;;;;;;88.63;35.72;;;8.90;99.90;;;;;;6276451;22;20020;-77
2021/10/28 02:32:34;;;;;;;92.10;36.03;;;8.90;99.90;;;;;;6275523;22;20442;-77
2021/10/28 02:35:01;;;;;;;97.43;37.72;;;9.00;99.90;;;;;;6275017;22;20095;-78
2021/10/28 02:37:28;;;;;;;100.95;39.72;;;9.00;99.90;;;;;;6274765;22;20346;-78
2021/10/28 02:39:55;;;;;;;92.88;36.50;;;9.10;99.90;;;;;;6275262;22;20104;-78
2021/10/28 02:42:22;;;;;;;97.30;38.00;;;9.10;99.90;;;;;;6277645;22;20106;-78
2021/10/28 02:44:50;;;;;;;102.45;39.30;;;9.20;99.90;;;;;;6277586;22;20077;-80
2021/10/28 02:47:18;;;;;;;97.57;37.55;;;9.20;99.90;;;;;;6276380;22;20048;-78
2021/10/28 02:49:46;;;;;;;97.20;38.55;;;9.30;99.90;;;;;;6278564;22;20030;-80
2021/10/28 02:52:13;;;;;;;99.38;36.58;;;9.40;99.90;;;;;;6278371;22;20035;-79
2021/10/28 02:54:39;;;;;;;92.88;36.88;;;9.40;99.90;;;;;;6278119;22;20051;-79
2021/10/28 02:57:08;;;;;;;92.93;36.92;;;9.40;99.90;;;;;;6277241;22;20091;-79
2021/10/28 02:59:35;;;;;;;92.00;36.45;;;9.50;99.90;;;;;;6277683;22;20020;-79
2021/10/28 03:02:02;;;;;;;95.95;37.70;;;9.50;99.90;;;;;;6277870;22;20094;-78
2021/10/28 03:04:30;;;;;;;114.57;39.45;;;9.60;99.90;;;;;;6278575;22;20095;-79
2021/10/28 03:06:57;;;;;;;109.25;40.22;;;9.70;99.90;;;;;;6273845;22;20382;-79
2021/10/28 03:09:26;;;;;;;126.88;40.65;;;9.70;99.90;;;;;;6277658;22;20357;-80
2021/10/28 03:11:55;;;;;;;113.50;41.78;;;9.60;99.90;;;;;;6277943;22;20454;-79
2021/10/28 03:14:27;;;;;;;120.72;43.92;;;9.60;99.90;;;;;;6276942;22;20374;-79
2021/10/28 03:16:59;;;;;;;131.00;46.63;;;9.70;99.90;;;;;;6275721;22;20054;-78
2021/10/28 03:19:36;;;;;;;129.80;43.08;;;9.70;99.90;;;;;;6277135;22;20365;-79
2021/10/28 03:27:33;;;;;;;139.35;45.47;;;9.70;99.90;;;;;;6275895;22;20023;-79
2021/10/28 03:30:00;;;;;;;161.77;45.85;;;9.70;99.90;;;;;;6277673;22;20061;-81
2021/10/28 03:32:28;;;;;;;132.75;46.63;;;9.70;99.90;;;;;;6276894;22;20099;-78
2021/10/28 03:34:55;;;;;;;126.20;42.53;;;9.70;99.90;;;;;;6275374;22;20416;-79
2021/10/28 03:37:26;;;;;;;151.57;45.35;;;9.70;99.90;;;;;;6276089;22;20016;-79
2021/10/28 03:40:27;;;;;;;163.45;46.30;;;9.70;99.90;;;;;;6277439;22;20024;-79
2021/10/28 04:16:54;;;;;;;159.30;50.47;;;9.80;99.90;;;;;;6224269;22;20020;-81
2021/10/28 04:19:39;;;;;;;142.52;46.47;;;9.80;99.90;;;;;;6276316;22;20026;-79
2021/10/28 04:30:42;;;;;;;150.88;49.33;;;9.90;99.90;;;;;;6155475;23;20514;-79
2021/10/28 04:33:09;;;;;;;146.18;49.40;;;9.80;99.90;;;;;;6225944;22;20023;-82
2021/10/28 04:35:36;;;;;;;137.55;46.17;;;9.80;99.90;;;;;;6279213;22;20420;-79
2021/10/28 04:38:04;;;;;;;143.30;49.78;;;9.90;99.90;;;;;;6278245;22;20058;-79
2021/10/28 04:40:31;;;;;;;156.60;52.17;;;9.90;99.90;;;;;;6279361;22;20340;-79
2021/10/28 04:42:59;;;;;;;147.95;50.45;;;9.80;99.90;;;;;;6278895;22;20103;-80
2021/10/28 04:45:26;;;;;;;143.57;49.55;;;9.90;99.90;;;;;;6277432;22;20023;-79
2021/10/28 04:47:53;;;;;;;145.80;50.30;;;9.90;99.90;;;;;;6278065;22;20107;-79
2021/10/28 04:50:20;;;;;;;153.32;51.35;;;9.90;99.90;;;;;;6278989;22;20055;-79
2021/10/28 04:52:47;;;;;;;135.18;49.42;;;9.90;99.90;;;;;;6280008;22;20071;-80
2021/10/28 04:55:14;;;;;;;144.77;49.78;;;10.00;99.90;;;;;;6280486;22;20024;-79
2021/10/28 04:57:42;;;;;;;137.00;48.67;;;9.90;99.90;;;;;;6279191;22;20047;-80
2021/10/28 05:00:11;;;;;;;137.25;49.72;;;9.90;99.90;;;;;;6279349;22;20027;-79
2021/10/28 05:02:38;;;;;;;134.05;50.53;;;9.90;99.90;;;;;;6285418;22;20023;-85
2021/10/28 05:05:06;;;;;;;136.35;48.38;;;10.00;99.90;;;;;;6295255;22;20325;-79
2021/10/28 05:07:33;;;;;;;129.45;46.97;;;9.90;99.90;;;;;;6279754;22;20054;-79
2021/10/28 05:09:59;;;;;;;130.50;45.97;;;9.90;99.90;;;;;;6280845;22;20055;-80
2021/10/28 05:12:26;;;;;;;121.47;45.80;;;9.90;99.90;;;;;;6278603;22;20055;-79
2021/10/28 05:14:53;;;;;;;114.28;43.47;;;9.90;99.90;;;;;;6275940;22;20099;-77
2021/10/28 05:17:22;;;;;;;110.38;44.13;;;9.90;99.90;;;;;;6275968;22;20029;-78
2021/10/28 05:19:48;;;;;;;103.43;43.17;;;9.80;99.90;;;;;;6277390;22;20033;-77
2021/10/28 05:22:17;;;;;;;99.40;41.65;;;9.80;99.90;;;;;;6276842;22;20422;-78
2021/10/28 05:24:44;;;;;;;102.15;42.25;;;9.70;99.90;;;;;;6276047;22;20026;-78
2021/10/28 05:27:11;;;;;;;98.10;40.03;;;9.60;99.90;;;;;;6275165;22;20050;-77
2021/10/28 05:29:38;;;;;;;103.63;41.60;;;9.60;99.90;;;;;;6276230;22;20477;-77
2021/10/28 05:32:06;;;;;;;92.80;38.95;;;9.60;99.90;;;;;;6276390;22;20074;-77
2021/10/28 05:34:36;;;;;;;101.20;39.33;;;9.60;99.90;;;;;;6275868;22;20695;-77
2021/10/28 05:37:03;;;;;;;96.47;38.67;;;9.50;99.90;;;;;;6275862;22;20045;-78
2021/10/28 05:39:30;;;;;;;94.85;39.65;;;9.50;99.90;;;;;;6276120;22;20056;-78
2021/10/28 05:41:56;;;;;;;103.55;39.50;;;9.50;99.90;;;;;;6276080;22;20098;-78
2021/10/28 05:44:23;;;;;;;95.38;38.80;;;9.50;99.90;;;;;;6275268;22;20024;-79
2021/10/28 05:46:50;;;;;;;95.18;39.22;;;9.50;99.90;;;;;;6275289;22;20087;-77
2021/10/28 05:49:17;;;;;;;104.85;41.25;;;9.40;99.90;;;;;;6275453;22;20042;-78
2021/10/28 05:51:47;;;;;;;106.85;42.03;;;9.40;99.90;;;;;;6275647;22;20098;-78
2021/10/28 05:54:14;;;;;;;106.05;41.00;;;9.40;99.90;;;;;;6275898;22;20020;-76
2021/10/28 05:56:41;;;;;;;102.60;41.10;;;9.40;99.90;;;;;;6275845;22;20016;-80
2021/10/28 05:59:07;;;;;;;105.18;42.70;;;9.40;99.90;;;;;;6278329;22;20335;-77
2021/10/28 06:01:34;;;;;;;108.70;42.80;;;9.30;99.90;;;;;;6276207;22;20361;-77
2021/10/28 06:04:08;;;;;;;109.57;44.08;;;9.40;99.90;;;;;;6275595;22;20047;-77
2021/10/28 06:06:35;;;;;;;99.43;40.95;;;9.40;99.90;;;;;;6274928;22;20020;-77
2021/10/28 06:09:03;;;;;;;102.32;40.55;;;9.40;99.90;;;;;;6275909;22;20051;-78
2021/10/28 06:11:30;;;;;;;94.50;40.22;;;9.50;99.90;;;;;;6274934;22;20395;-75
2021/10/28 06:13:57;;;;;;;102.43;41.25;;;9.50;99.90;;;;;;6275226;22;20094;-77
2021/10/28 06:16:26;;;;;;;107.10;41.15;;;9.50;99.90;;;;;;6275805;22;20019;-77
2021/10/28 06:18:53;;;;;;;107.63;40.33;;;9.50;99.90;;;;;;6276376;22;20111;-77
2021/10/28 06:21:24;;;;;;;104.45;41.70;;;9.50;99.90;;;;;;6278967;22;20099;-76
2021/10/28 06:23:52;;;;;;;107.88;42.63;;;9.50;99.90;;;;;;6271899;22;20020;-81
2021/10/28 06:26:20;;;;;;;109.80;42.35;;;9.50;99.90;;;;;;6259258;23;20020;-81
2021/10/28 06:28:47;;;;;;;103.43;43.20;;;9.60;99.90;;;;;;6260208;23;20024;-81
2021/10/28 06:31:14;;;;;;;123.65;42.30;;;9.50;99.90;;;;;;6257297;23;20024;-79
2021/10/28 06:33:48;;;;;;;116.45;42.53;;;9.50;99.90;;;;;;6269116;22;20081;-79
2021/10/28 06:36:18;;;;;;;116.05;42.63;;;9.50;99.90;;;;;;6292284;22;20034;-80
2021/10/28 06:38:45;;;;;;;124.05;43.28;;;9.50;99.90;;;;;;6285760;22;20020;-80
2021/10/28 06:41:12;;;;;;;123.15;42.72;;;9.50;99.90;;;;;;6286727;22;20450;-80
2021/10/28 06:43:41;;;;;;;130.43;45.20;;;9.40;99.90;;;;;;6286198;22;20085;-80
2021/10/28 06:46:08;;;;;;;122.50;45.78;;;9.40;99.90;;;;;;6283530;22;20034;-79
2021/10/28 06:48:35;;;;;;;125.40;44.85;;;9.40;99.90;;;;;;6284211;22;20107;-78
2021/10/28 06:51:03;;;;;;;130.88;47.08;;;9.40;99.90;;;;;;6284447;22;20031;-78
2021/10/28 06:53:34;;;;;;;120.13;47.35;;;9.50;99.90;;;;;;6283354;22;20434;-80
2021/10/28 06:56:25;;;;;;;119.75;43.97;;;9.50;99.90;;;;;;6284551;22;20026;-79
2021/10/28 07:04:22;;;;;;;115.65;49.15;;;9.60;99.90;;;;;;6285379;22;20496;-79
2021/10/28 07:06:50;;;;;;;119.05;46.15;;;9.60;99.90;;;;;;6281345;22;20019;-79
2021/10/28 07:09:20;;;;;;;114.63;45.30;;;9.60;99.90;;;;;;6282902;22;20046;-79
2021/10/28 07:11:53;;;;;;;110.68;44.60;;;9.60;99.90;;;;;;6277016;22;20111;-78
2021/10/28 07:14:21;;;;;;;97.43;41.60;;;9.60;99.90;;;;;;6281556;22;20099;-79
2021/10/28 07:16:58;;;;;;;105.15;41.35;;;9.60;99.90;;;;;;6281760;22;20047;-77
2021/10/28 07:27:54;;;;;;;90.40;40.40;;;9.70;99.90;;;;;;6250796;23;20017;-82
2021/10/28 07:30:43;;;;;;;88.55;39.78;;;9.80;99.90;;;;;;6255976;23;20024;-81
2021/10/28 07:58:40;;;;;;;48.65;28.38;;;10.50;99.90;;;;;;6217652;23;20055;-85
2021/10/28 08:17:43;;;;;;;39.03;24.23;;;11.10;99.90;;;;;;6259643;23;20020;-81
2021/10/28 08:20:17;;;;;;;37.28;23.42;;;11.20;99.90;;;;;;6259292;23;20024;-83
2021/10/28 08:22:48;;;;;;;38.28;24.35;;;11.10;99.90;;;;;;6259087;23;20044;-81
2021/10/28 08:30:44;;;;;;;38.22;23.45;;;11.20;99.90;;;;;;6258470;23;20047;-82
2021/10/28 08:33:12;;;;;;;41.65;24.17;;;11.10;99.90;;;;;;6260357;23;20043;-83
2021/10/28 08:35:51;;;;;;;33.95;22.42;;;11.00;99.90;;;;;;6260129;23;20024;-83
2021/10/28 08:38:17;;;;;;;36.95;23.67;;;11.00;99.90;;;;;;6260170;23;20019;-83
2021/10/28 08:40:44;;;;;;;34.28;23.38;;;10.90;99.90;;;;;;6265351;23;20024;-83
2021/10/28 08:43:12;;;;;;;45.10;24.45;;;10.90;99.90;;;;;;6266792;23;20024;-82
2021/10/28 08:45:39;;;;;;;34.95;22.45;;;11.00;99.90;;;;;;6266672;23;20032;-84
2021/10/28 08:48:08;;;;;;;36.33;22.70;;;11.00;99.90;;;;;;6266847;23;20354;-82
2021/10/28 08:50:39;;;;;;;35.63;21.17;;;11.10;99.90;;;;;;6262113;23;20024;-84
2021/10/28 08:53:17;;;;;;;37.05;21.67;;;11.20;99.90;;;;;;6261182;23;20047;-83
2021/10/28 08:55:49;;;;;;;32.40;20.90;;;11.40;99.90;;;;;;6260767;23;20020;-83
2021/10/28 09:26:40;;;;;;;24.33;16.42;;;11.90;99.90;;;;;;6258359;23;20035;-80
2021/10/28 09:29:16;;;;;;;23.15;15.90;;;12.00;99.90;;;;;;6260732;23;20016;-83
2021/10/28 09:31:54;;;;;;;23.27;17.63;;;12.10;99.90;;;;;;6261028;23;20032;-81
2021/10/28 09:34:37;;;;;;;21.52;15.85;;;12.20;99.90;;;;;;6265547;23;20463;-81
2021/10/28 09:46:15;;;;;;;23.15;16.02;;;12.50;99.90;;;;;;6257446;23;20084;-81
2021/10/28 09:51:34;;;;;;;21.30;14.90;;;12.60;99.90;;;;;;6262369;23;20099;-82
2021/10/28 09:54:09;;;;;;;21.50;14.52;;;12.70;99.90;;;;;;6264123;23;20024;-84
2021/10/28 09:59:34;;;;;;;17.95;13.52;;;13.00;99.90;;;;;;6265589;23;20035;-82
2021/10/28 10:02:14;;;;;;;19.75;14.13;;;13.00;99.90;;;;;;6261846;23;20020;-84
2021/10/28 10:04:42;;;;;;;21.15;14.18;;;13.00;99.90;;;;;;6257055;23;20020;-82
2021/10/28 10:07:10;;;;;;;17.48;13.27;;;13.00;99.90;;;;;;6255475;23;20411;-81
2021/10/28 10:09:38;;;;;;;19.50;14.07;;;13.10;99.90;;;;;;6253929;23;20074;-82
2021/10/28 10:12:06;;;;;;;17.60;13.68;;;13.20;99.90;;;;;;6255322;23;20024;-82
2021/10/28 10:14:44;;;;;;;21.50;15.07;;;13.30;99.90;;;;;;6256700;23;20028;-81
2021/10/28 10:17:11;;;;;;;19.02;13.60;;;13.40;99.90;;;;;;6256192;23;20027;-82
2021/10/28 10:19:45;;;;;;;15.25;12.25;;;13.50;99.90;;;;;;6254516;23;20024;-81
2021/10/28 10:22:21;;;;;;;17.13;12.88;;;13.50;99.90;;;;;;6254613;23;20030;-81
2021/10/28 10:24:59;;;;;;;20.30;12.27;;;13.60;99.90;;;;;;6253418;22;20035;-80
2021/10/28 11:30:30;;;;;;;18.08;12.50;;;14.60;99.90;;;;;;6258433;23;20095;-83
2021/10/28 11:33:27;;;;;;;16.00;12.85;;;14.70;99.90;;;;;;6261148;23;20046;-82
2021/10/28 12:14:03;;;;;;;16.23;12.45;;;15.50;99.90;;;;;;6263492;23;20031;-81
2021/10/28 12:25:03;;;;;;;18.98;12.38;;;15.50;99.90;;;;;;6242942;22;20024;-80
2021/10/28 12:27:59;;;;;;;15.73;12.88;;;15.50;99.90;;;;;;6216723;23;20028;-79
2021/10/28 12:44:53;;;;;;;19.67;12.55;;;15.40;99.90;;;;;;6190652;23;20068;-82
2021/10/28 12:47:36;;;;;;;14.82;11.95;;;15.40;99.90;;;;;;6190619;23;20024;-81
2021/10/28 12:50:33;;;;;;;;;;;15.50;99.90;;;;;;6192110;23;20044;-82
2021/10/28 12:53:28;;;;;;;16.15;12.85;;;15.50;99.90;;;;;;6191871;23;19931;-80
2021/10/28 12:56:11;;;;;;;19.17;13.20;;;15.50;99.90;;;;;;6192547;23;20048;-81
2021/10/28 13:04:19;;;;;;;16.95;12.88;;;15.70;99.90;;;;;;6192270;23;20033;-81
2021/10/28 13:51:06;;;;;;;14.75;12.27;;;15.90;99.90;;;;;;6106591;23;20046;-80
2021/10/28 13:59:36;;;;;;;18.38;12.40;;;15.80;99.90;;;;;;6158031;23;20043;-79
2021/10/28 14:19:28;;;;;;;15.18;12.43;;;15.70;99.90;;;;;;6222003;23;20071;-79
2021/10/28 14:39:12;;;;;;;16.65;12.05;;;15.70;99.90;;;;;;6226717;23;20021;-79
2021/10/28 15:28:40;;;;;;;18.40;14.07;;;14.90;99.90;;;;;;6220191;23;20098;-79
2021/10/28 15:31:25;;;;;;;17.02;14.10;;;14.90;99.90;;;;;;6220471;23;20331;-80
2021/10/28 15:34:23;;;;;;;24.42;15.07;;;14.80;99.90;;;;;;6221148;23;20048;-81
2021/10/28 15:36:55;;;;;;;19.15;14.68;;;14.70;99.90;;;;;;6218985;23;20109;-80
2021/10/28 15:39:30;;;;;;;18.75;15.27;;;14.70;99.90;;;;;;6218885;23;20087;-80
2021/10/28 15:56:30;;;;;;;19.83;14.95;;;14.30;99.90;;;;;;6132587;23;20021;-80
2021/10/28 16:24:45;;;;;;;23.02;17.65;;;13.40;99.90;;;;;;6217233;23;20398;-78
2021/10/28 16:27:22;;;;;;;24.38;18.38;;;13.30;99.90;;;;;;6217850;23;20024;-80
2021/10/28 16:30:15;;;;;;;25.83;19.25;;;13.20;99.90;;;;;;6217568;23;20021;-81
2021/10/28 16:32:45;;;;;;;24.73;18.80;;;13.20;99.90;;;;;;6218463;23;20447;-80
2021/10/28 16:35:12;;;;;;;27.63;19.23;;;13.10;99.90;;;;;;6218675;23;20047;-78
2021/10/28 16:37:49;;;;;;;27.60;18.65;;;13.10;99.90;;;;;;6218692;23;20092;-80
2021/10/28 16:40:18;;;;;;;24.25;19.02;;;13.00;99.90;;;;;;6218728;23;20099;-80
2021/10/28 16:43:01;;;;;;;26.95;19.70;;;12.90;99.90;;;;;;6221786;23;20024;-80
2021/10/28 16:45:28;;;;;;;33.72;19.73;;;12.90;99.90;;;;;;6220411;23;20074;-80
2021/10/28 16:48:07;;;;;;;28.02;20.40;;;12.90;99.90;;;;;;6219512;23;20052;-81
2021/10/28 16:50:40;;;;;;;28.05;21.00;;;12.80;99.90;;;;;;6219812;23;20020;-81
2021/10/28 16:53:15;;;;;;;28.90;20.20;;;12.80;99.90;;;;;;6219685;23;20395;-80
2021/10/28 16:55:50;;;;;;;28.40;20.50;;;12.70;99.90;;;;;;6241253;22;20023;-80
2021/10/28 16:58:22;;;;;;;27.30;20.52;;;12.60;99.90;;;;;;6249536;23;20482;-80
2021/10/28 17:01:06;;;;;;;28.87;21.33;;;12.60;99.90;;;;;;6248461;22;20020;-79
2021/10/28 17:03:34;;;;;;;29.35;20.40;;;12.50;99.90;;;;;;6250351;22;20251;-80
2021/10/28 17:06:13;;;;;;;130.50;86.43;;;12.50;99.90;;;;;;6279401;22;20054;-79
2021/10/28 17:08:56;;;;;;;32.58;23.98;;;12.40;99.90;;;;;;6260458;22;20023;-81
2021/10/28 17:14:33;;;;;;;43.65;36.03;;;12.30;99.90;;;;;;6214533;23;20020;-80
2021/10/28 17:17:00;;;;;;;53.65;46.28;;;12.20;99.90;;;;;;6216361;23;20033;-79
2021/10/28 17:19:27;;;;;;;69.15;55.53;;;12.10;99.90;;;;;;6240526;23;20023;-78
2021/10/28 17:21:54;;;;;;;32.80;25.25;;;12.10;99.90;;;;;;6252828;23;20032;-79
2021/10/28 17:24:31;;;;;;;40.08;25.50;;;12.10;99.90;;;;;;6250489;23;20346;-79
2021/10/28 17:27:00;;;;;;;35.00;24.55;;;12.00;99.90;;;;;;6252363;23;20086;-80
2021/10/28 17:29:27;;;;;;;34.28;24.27;;;12.00;99.90;;;;;;6251042;23;20081;-79
2021/10/28 17:31:56;;;;;;;28.88;22.88;;;12.00;99.90;;;;;;6249500;23;20024;-78
2021/10/28 17:34:23;;;;;;;34.80;23.75;;;11.90;99.90;;;;;;6251316;23;20055;-79
2021/10/28 17:36:52;;;;;;;34.13;24.58;;;11.80;99.90;;;;;;6250545;23;20091;-78
2021/10/28 17:39:21;;;;;;;35.05;25.20;;;11.80;99.90;;;;;;6250576;23;20070;-79
2021/10/28 17:41:48;;;;;;;35.50;24.60;;;11.80;99.90;;;;;;6250627;23;20034;-77
2021/10/28 17:44:18;;;;;;;36.22;25.10;;;11.70;99.90;;;;;;6250086;23;20054;-77
2021/10/28 17:46:45;;;;;;;36.50;25.17;;;11.70;99.90;;;;;;6243992;23;20549;-77
2021/10/28 17:49:11;;;;;;;39.60;26.10;;;11.60;99.90;;;;;;6244180;23;20055;-78
2021/10/28 17:51:41;;;;;;;45.72;33.72;;;11.50;99.90;;;;;;6244260;23;20024;-77
2021/10/28 17:54:10;;;;;;;73.90;56.65;;;11.50;99.90;;;;;;6245572;23;20024;-78
2021/10/28 17:56:38;;;;;;;38.42;26.17;;;11.40;99.90;;;;;;6243771;23;20055;-79
2021/10/28 17:59:06;;;;;;;39.92;29.55;;;11.40;99.90;;;;;;6244014;23;20072;-78
2021/10/28 18:01:35;;;;;;;33.70;25.88;;;11.30;99.90;;;;;;6244075;23;20051;-78
2021/10/28 18:04:03;;;;;;;47.22;35.45;;;11.20;99.90;;;;;;6243973;23;20062;-78
2021/10/28 18:06:31;;;;;;;40.15;28.13;;;11.10;99.90;;;;;;6243851;23;20020;-78
2021/10/28 18:09:00;;;;;;;38.72;29.30;;;11.10;99.90;;;;;;6243390;22;20020;-78
2021/10/28 18:11:28;;;;;;;38.42;27.17;;;11.10;99.90;;;;;;6243729;23;20024;-77
2021/10/28 18:13:57;;;;;;;38.90;27.25;;;11.00;99.90;;;;;;6244019;23;20362;-78
2021/10/28 18:16:25;;;;;;;40.75;27.00;;;10.90;99.90;;;;;;6244245;23;20335;-77
2021/10/28 18:18:54;;;;;;;38.30;27.80;;;10.90;99.90;;;;;;6243869;23;20324;-80
2021/10/28 18:21:21;;;;;;;40.30;26.67;;;10.90;99.90;;;;;;6244005;23;20052;-79
2021/10/28 18:23:49;;;;;;;37.85;26.90;;;10.80;99.90;;;;;;6244982;23;20024;-78
2021/10/28 18:26:16;;;;;;;38.58;27.17;;;10.80;99.90;;;;;;6245260;23;20394;-78
2021/10/28 18:28:43;;;;;;;40.25;28.00;;;10.80;99.90;;;;;;6245033;23;20028;-79
2021/10/28 18:31:10;;;;;;;39.53;27.38;;;10.80;99.90;;;;;;6246001;23;20024;-78
2021/10/28 18:33:37;;;;;;;40.42;27.10;;;10.70;99.90;;;;;;6245403;23;20059;-80
2021/10/28 18:36:08;;;;;;;39.40;27.63;;;10.70;99.90;;;;;;6255788;23;20051;-81
2021/10/28 18:38:36;;;;;;;38.55;27.13;;;10.70;99.90;;;;;;6245589;23;20020;-79
2021/10/28 18:41:04;;;;;;;38.83;26.65;;;10.60;99.90;;;;;;6244956;23;20043;-78
2021/10/28 18:43:31;;;;;;;38.72;25.98;;;10.60;99.90;;;;;;6245113;23;20478;-78
2021/10/28 18:45:58;;;;;;;38.65;26.33;;;10.50;99.90;;;;;;6247416;23;20020;-79
2021/10/28 18:48:26;;;;;;;39.45;26.55;;;10.50;99.90;;;;;;6245929;23;20023;-77
2021/10/28 18:50:54;;;;;;;44.67;28.33;;;10.50;99.90;;;;;;6245741;23;20043;-78
2021/10/28 18:53:35;;;;;;;40.40;26.55;;;10.50;99.90;;;;;;6242815;23;20051;-78
2021/10/28 18:56:07;;;;;;;41.17;26.48;;;10.40;99.90;;;;;;6243610;23;20016;-77
2021/10/28 18:58:43;;;;;;;40.75;27.80;;;10.40;99.90;;;;;;6245119;23;20024;-78
2021/10/28 19:01:14;;;;;;;41.97;29.02;;;10.40;99.90;;;;;;6245559;23;20042;-80
2021/10/28 19:03:53;;;;;;;42.72;28.48;;;10.30;99.90;;;;;;6245269;23;20055;-78
2021/10/28 19:06:38;;;;;;;45.40;28.88;;;10.20;99.90;;;;;;6243778;23;20106;-76
2021/10/28 19:09:48;;;;;;;41.75;29.05;;;10.20;99.90;;;;;;6246973;22;20040;-76
2021/10/28 19:12:15;;;;;;;42.53;28.42;;;10.10;99.90;;;;;;6246087;23;20099;-78
2021/10/28 19:17:29;;;;;;;40.00;27.48;;;10.00;99.90;;;;;;6236701;23;20031;-79
2021/10/28 19:19:56;;;;;;;41.22;28.63;;;10.00;99.90;;;;;;6243768;23;20065;-77
2021/10/28 19:22:29;;;;;;;50.35;31.55;;;10.00;99.90;;;;;;6245367;23;20024;-78
2021/10/28 19:24:58;;;;;;;44.25;29.40;;;9.90;99.90;;;;;;6246730;23;20122;-77
2021/10/28 19:27:25;;;;;;;43.75;28.90;;;9.90;99.90;;;;;;6246649;23;20024;-78
2021/10/28 19:29:56;;;;;;;43.03;27.88;;;9.90;99.90;;;;;;6246678;23;20411;-77
2021/10/28 19:32:25;;;;;;;45.40;28.80;;;9.90;99.90;;;;;;6248763;23;20063;-78
2021/10/28 19:34:53;;;;;;;45.13;26.20;;;9.90;99.90;;;;;;6246068;23;20024;-78
2021/10/28 19:37:25;;;;;;;40.28;27.20;;;9.80;99.90;;;;;;6245948;23;20020;-77
2021/10/28 19:40:13;;;;;;;45.88;29.05;;;9.80;99.90;;;;;;6246744;23;20024;-76
2021/10/28 19:45:32;;;;;;;41.20;25.33;;;9.80;99.90;;;;;;6245891;23;20112;-77
2021/10/28 19:47:59;;;;;;;42.42;27.42;;;9.80;99.90;;;;;;6246085;23;20020;-78
2021/10/28 19:50:27;;;;;;;46.67;27.15;;;9.70;99.90;;;;;;6245863;23;20150;-77
2021/10/28 19:52:53;;;;;;;45.25;28.23;;;9.70;99.90;;;;;;6245825;23;20047;-76
2021/10/28 19:55:22;;;;;;;47.58;29.17;;;9.70;99.90;;;;;;6245359;23;20070;-77
2021/10/28 19:57:52;;;;;;;49.88;28.80;;;9.60;99.90;;;;;;6246186;23;20024;-76
2021/10/28 20:00:29;;;;;;;46.55;29.13;;;9.60;99.90;;;;;;6245349;23;20023;-77
2021/10/28 20:03:22;;;;;;;44.65;29.92;;;9.50;99.90;;;;;;6245596;23;20027;-77
2021/10/28 20:14:38;;;;;;;45.10;28.73;;;9.40;99.90;;;;;;5096416;28;20163;-77
2021/10/28 20:20:08;;;;;;;47.75;30.25;;;9.40;99.90;;;;;;5099687;28;20115;-76
2021/10/28 20:22:37;;;;;;;50.55;30.05;;;9.40;99.90;;;;;;5110306;28;20541;-76
2021/10/28 20:25:13;;;;;;;48.80;28.83;;;9.30;99.90;;;;;;5108595;28;20039;-77
2021/10/28 20:27:42;;;;;;;44.67;29.63;;;9.30;99.90;;;;;;5107826;28;20090;-77
2021/10/28 20:30:13;;;;;;;51.03;29.70;;;9.30;99.90;;;;;;5107943;28;20043;-78
2021/10/28 20:32:40;;;;;;;49.13;29.83;;;9.30;99.90;;;;;;5108147;28;20046;-78
2021/10/28 20:35:12;;;;;;;45.72;26.90;;;9.30;99.90;;;;;;5108020;28;20048;-78
2021/10/28 20:37:42;;;;;;;45.13;29.30;;;9.20;99.90;;;;;;5090729;28;20408;-77
2021/10/28 20:40:11;;;;;;;49.00;29.45;;;9.30;99.90;;;;;;5089777;28;20074;-77
2021/10/28 20:42:39;;;;;;;48.17;30.15;;;9.20;99.90;;;;;;5088677;28;20044;-78
2021/10/28 20:45:11;;;;;;;45.03;29.25;;;9.20;99.90;;;;;;5107281;28;20043;-78
2021/10/28 20:47:42;;;;;;;49.60;29.55;;;9.20;99.90;;;;;;5107909;28;20044;-79
2021/10/28 20:50:13;;;;;;;45.05;29.60;;;9.20;99.90;;;;;;5108979;28;20717;-78
2021/10/28 20:52:41;;;;;;;45.38;29.48;;;9.10;99.90;;;;;;5109677;28;20051;-80
2021/10/28 20:55:10;;;;;;;44.30;28.58;;;9.10;99.90;;;;;;5108283;28;20135;-78